Time;durP1;ratioP1;P1;durP2;ratioP2;P2;SDS_P1;SDS_P2;PMS_P1;PMS_P2;Temp;Humidity;BMP_temperature;BMP_pressure;BME280_temperature;BME280_humidity;BME280_pressure;Samples;Min_cycle;Max_cycle;Signal;HPM_P1;HPM_P2
2022/06/23 00:02:46;;;;;;;19.90;15.27;;;;;;;;;;6154071;28;20110;-78
2022/06/23 00:05:54;;;;;;;22.42;14.85;;;;;;;;;;6156310;28;20657;-78
2022/06/23 00:08:57;;;;;;;18.35;14.85;;;;;;;;;;6175108;28;20046;-78
2022/06/23 00:11:59;;;;;;;18.20;13.95;;;;;;;;;;6179676;28;20095;-77
2022/06/23 00:15:24;;;;;;;17.42;14.45;;;;;;;;;;6175902;28;20050;-78
2022/06/23 00:18:27;;;;;;;20.85;12.88;;;;;;;;;;6184456;28;20090;-78
2022/06/23 00:21:32;;;;;;;17.65;12.90;;;;;;;;;;6176469;28;20304;-77
2022/06/23 00:24:36;;;;;;;17.80;13.63;;;;;;;;;;6175729;28;20047;-78
2022/06/23 00:27:44;;;;;;;19.17;13.25;;;;;;;;;;6185649;28;20059;-78
2022/06/23 00:30:51;;;;;;;20.73;12.95;;;;;;;;;;6183235;28;20055;-78
2022/06/23 00:33:53;;;;;;;13.55;12.02;;;;;;;;;;6184952;28;20046;-77
2022/06/23 00:36:57;;;;;;;18.75;14.35;;;;;;;;;;6182808;28;20058;-77
2022/06/23 00:40:01;;;;;;;17.35;13.23;;;;;;;;;;6180159;28;20241;-77
2022/06/23 00:43:04;;;;;;;18.10;13.88;;;;;;;;;;6182364;28;20081;-77
2022/06/23 00:46:10;;;;;;;15.93;12.25;;;;;;;;;;6182931;28;20046;-77
2022/06/23 00:49:17;;;;;;;16.42;13.15;;;;;;;;;;6180948;28;20225;-77
2022/06/23 00:52:23;;;;;;;19.67;13.45;;;;;;;;;;6184050;28;20046;-77
2022/06/23 00:55:38;;;;;;;17.52;12.18;;;;;;;;;;6186707;28;20102;-77
2022/06/23 00:58:44;;;;;;;22.90;13.13;;;;;;;;;;6179158;28;20050;-77
2022/06/23 01:01:50;;;;;;;18.98;11.50;;;;;;;;;;6182592;28;20082;-77
2022/06/23 01:04:57;;;;;;;18.30;12.05;;;;;;;;;;6182584;28;20050;-79
2022/06/23 01:08:02;;;;;;;15.93;12.48;;;;;;;;;;6166343;28;20043;-81
2022/06/23 01:11:11;;;;;;;17.45;12.32;;;;;;;;;;6179849;28;20046;-80
2022/06/23 01:14:23;;;;;;;24.05;12.65;;;;;;;;;;6164421;28;20066;-80
2022/06/23 01:17:28;;;;;;;14.93;12.05;;;;;;;;;;6168605;28;20062;-82
2022/06/23 01:20:35;;;;;;;14.25;10.98;;;;;;;;;;6151165;28;20239;-80
2022/06/23 01:23:49;;;;;;;15.32;11.10;;;;;;;;;;6151269;28;20059;-80
2022/06/23 01:27:03;;;;;;;20.33;11.98;;;;;;;;;;6154167;28;20059;-80
2022/06/23 01:30:08;;;;;;;16.33;11.63;;;;;;;;;;6148558;28;20262;-80
2022/06/23 01:33:17;;;;;;;15.43;11.02;;;;;;;;;;6150109;28;20051;-78
2022/06/23 01:36:23;;;;;;;13.32;10.93;;;;;;;;;;6155013;28;20341;-78
2022/06/23 01:39:28;;;;;;;15.02;11.75;;;;;;;;;;6163962;28;20273;-77
2022/06/23 01:42:35;;;;;;;15.93;11.82;;;;;;;;;;6190549;28;20058;-79
2022/06/23 01:45:43;;;;;;;17.80;11.13;;;;;;;;;;6182006;28;20077;-77
2022/06/23 01:48:53;;;;;;;17.05;11.40;;;;;;;;;;6184485;28;20050;-78
2022/06/23 01:51:56;;;;;;;18.23;11.73;;;;;;;;;;6187427;28;20050;-76
2022/06/23 01:55:00;;;;;;;17.00;11.35;;;;;;;;;;6187705;28;20313;-77
2022/06/23 01:58:05;;;;;;;15.77;10.50;;;;;;;;;;6187441;28;20051;-78
2022/06/23 02:01:12;;;;;;;14.18;11.35;;;;;;;;;;6186203;28;20050;-76
2022/06/23 02:04:18;;;;;;;15.75;10.45;;;;;;;;;;6188809;28;20373;-77
2022/06/23 02:07:24;;;;;;;15.27;10.18;;;;;;;;;;6183462;28;20051;-77
2022/06/23 02:10:30;;;;;;;15.98;10.10;;;;;;;;;;6183374;28;20375;-77
2022/06/23 02:13:35;;;;;;;20.60;10.82;;;;;;;;;;6180902;28;20427;-77
2022/06/23 02:16:44;;;;;;;13.65;10.07;;;;;;;;;;6182209;28;20063;-77
2022/06/23 02:19:49;;;;;;;15.70;10.82;;;;;;;;;;6184006;28;20054;-76
2022/06/23 02:23:01;;;;;;;14.82;10.00;;;;;;;;;;6188396;28;20066;-76
2022/06/23 02:26:07;;;;;;;13.75;10.32;;;;;;;;;;6178807;28;20221;-77
2022/06/23 02:29:16;;;;;;;14.27;9.07;;;;;;;;;;6176338;28;20332;-76
2022/06/23 02:32:24;;;;;;;14.00;9.73;;;;;;;;;;6183495;28;20063;-76
2022/06/23 02:35:30;;;;;;;12.20;9.38;;;;;;;;;;6185986;28;20241;-77
2022/06/23 02:38:34;;;;;;;10.55;9.10;;;;;;;;;;6181798;28;20051;-77
2022/06/23 02:41:40;;;;;;;15.10;9.85;;;;;;;;;;6184647;28;20084;-78
2022/06/23 02:45:15;;;;;;;12.15;9.68;;;;;;;;;;6180542;28;20053;-78
2022/06/23 02:48:32;;;;;;;15.07;10.57;;;;;;;;;;6187089;28;20341;-78
2022/06/23 02:51:49;;;;;;;19.38;10.75;;;;;;;;;;6175396;28;20074;-79
2022/06/23 02:55:06;;;;;;;16.52;10.02;;;;;;;;;;6176308;28;20050;-79
2022/06/23 02:58:10;;;;;;;15.98;9.63;;;;;;;;;;6180409;28;20106;-78
2022/06/23 03:01:17;;;;;;;12.32;9.10;;;;;;;;;;6177630;28;20043;-78
2022/06/23 03:04:24;;;;;;;13.55;9.48;;;;;;;;;;6156375;28;20093;-78
2022/06/23 03:07:28;;;;;;;14.63;9.75;;;;;;;;;;6155550;28;20047;-78
2022/06/23 03:10:34;;;;;;;13.13;10.20;;;;;;;;;;6159877;28;20055;-78
2022/06/23 03:13:43;;;;;;;15.60;9.90;;;;;;;;;;6160842;28;20043;-78
2022/06/23 03:16:49;;;;;;;15.63;9.25;;;;;;;;;;6175395;28;20059;-77
2022/06/23 03:19:59;;;;;;;14.80;10.35;;;;;;;;;;6183314;28;20050;-79
2022/06/23 03:23:04;;;;;;;13.52;9.13;;;;;;;;;;6177283;28;20101;-79
2022/06/23 03:26:15;;;;;;;14.20;10.35;;;;;;;;;;6181161;28;20058;-79
2022/06/23 03:29:20;;;;;;;16.25;10.77;;;;;;;;;;6183768;28;20308;-78
2022/06/23 03:32:25;;;;;;;16.63;10.23;;;;;;;;;;6181379;28;20047;-78
2022/06/23 03:35:30;;;;;;;15.95;10.15;;;;;;;;;;6184215;28;20061;-78
2022/06/23 03:42:04;;;;;;;13.85;9.50;;;;;;;;;;6181248;28;20110;-78
2022/06/23 03:45:12;;;;;;;18.67;11.15;;;;;;;;;;6187702;28;20065;-78
2022/06/23 03:48:18;;;;;;;19.27;11.27;;;;;;;;;;6181438;28;20245;-78
2022/06/23 03:51:24;;;;;;;13.07;9.77;;;;;;;;;;6179774;28;20079;-78
2022/06/23 03:54:31;;;;;;;12.90;9.80;;;;;;;;;;6182037;28;20058;-78
2022/06/23 03:57:36;;;;;;;17.52;11.02;;;;;;;;;;6183473;28;20048;-78
2022/06/23 04:00:42;;;;;;;16.13;11.27;;;;;;;;;;6183631;28;20113;-77
2022/06/23 04:03:46;;;;;;;13.90;10.77;;;;;;;;;;6180952;28;20055;-78
2022/06/23 04:06:50;;;;;;;15.82;10.18;;;;;;;;;;6178801;28;20050;-78
2022/06/23 04:09:52;;;;;;;14.98;10.82;;;;;;;;;;6181965;28;20058;-79
2022/06/23 04:12:56;;;;;;;15.55;11.55;;;;;;;;;;6186238;28;20914;-78
2022/06/23 04:16:04;;;;;;;17.73;12.70;;;;;;;;;;6181335;28;20102;-77
2022/06/23 04:19:09;;;;;;;15.02;11.25;;;;;;;;;;6180800;28;20048;-78
2022/06/23 04:22:16;;;;;;;17.52;10.32;;;;;;;;;;6179377;28;20306;-78
2022/06/23 04:25:20;;;;;;;15.65;10.98;;;;;;;;;;6184803;28;20059;-78
2022/06/23 04:28:25;;;;;;;15.32;10.63;;;;;;;;;;6183127;28;20054;-76
2022/06/23 04:31:29;;;;;;;16.27;10.52;;;;;;;;;;6184035;28;20350;-76
2022/06/23 04:34:33;;;;;;;19.35;12.57;;;;;;;;;;6182741;28;20046;-76
2022/06/23 04:37:40;;;;;;;17.52;11.38;;;;;;;;;;6170927;28;20050;-77
2022/06/23 04:40:47;;;;;;;13.98;10.48;;;;;;;;;;6158384;28;20122;-76
2022/06/23 04:43:51;;;;;;;17.73;11.38;;;;;;;;;;6158434;28;20122;-76
2022/06/23 04:46:54;;;;;;;;;;;;;;;;;;6177976;28;20042;-78
2022/06/23 04:49:58;;;;;;;13.13;10.35;;;;;;;;;;6180865;28;20244;-77
2022/06/23 04:53:01;;;;;;;11.90;9.73;;;;;;;;;;6184260;28;20054;-76
2022/06/23 04:56:11;;;;;;;17.63;10.75;;;;;;;;;;6183707;28;20085;-76
2022/06/23 04:59:25;;;;;;;17.10;11.38;;;;;;;;;;6160245;28;20066;-76
2022/06/23 05:02:29;;;;;;;21.48;12.00;;;;;;;;;;6156661;28;20106;-77
2022/06/23 05:05:34;;;;;;;17.83;10.27;;;;;;;;;;6163025;28;20107;-76
2022/06/23 05:08:41;;;;;;;18.00;11.27;;;;;;;;;;6169913;28;20063;-75
2022/06/23 05:11:47;;;;;;;20.20;11.13;;;;;;;;;;6180336;28;20085;-78
2022/06/23 05:14:53;;;;;;;17.02;10.65;;;;;;;;;;6181816;28;20050;-76
2022/06/23 05:17:58;;;;;;;16.45;11.15;;;;;;;;;;6185199;28;20057;-79
2022/06/23 05:21:04;;;;;;;18.00;11.27;;;;;;;;;;6184059;28;20070;-75
2022/06/23 05:24:09;;;;;;;11.80;9.27;;;;;;;;;;6184159;28;20109;-76
2022/06/23 05:27:17;;;;;;;13.02;10.45;;;;;;;;;;6183967;28;20058;-75
2022/06/23 05:30:25;;;;;;;14.20;9.43;;;;;;;;;;6185184;28;20137;-79
2022/06/23 05:33:30;;;;;;;14.60;9.77;;;;;;;;;;6180912;28;20337;-77
2022/06/23 05:36:36;;;;;;;14.52;9.88;;;;;;;;;;6187691;28;20265;-78
2022/06/23 05:39:44;;;;;;;19.77;10.75;;;;;;;;;;6182666;28;20062;-74
2022/06/23 05:42:48;;;;;;;14.98;10.15;;;;;;;;;;6161511;28;22047;-76
2022/06/23 05:45:53;;;;;;;16.48;10.85;;;;;;;;;;6167955;28;20328;-76
2022/06/23 05:48:58;;;;;;;17.77;10.57;;;;;;;;;;6162634;28;20311;-75
2022/06/23 05:52:04;;;;;;;19.42;12.23;;;;;;;;;;6159573;28;20055;-76
2022/06/23 05:55:14;;;;;;;15.50;10.52;;;;;;;;;;6166280;28;20059;-76
2022/06/23 05:58:21;;;;;;;15.07;10.35;;;;;;;;;;6162965;28;20238;-76
2022/06/23 06:01:26;;;;;;;17.70;11.57;;;;;;;;;;6187234;28;20055;-76
2022/06/23 06:04:30;;;;;;;16.60;10.90;;;;;;;;;;6186629;28;20046;-75
2022/06/23 06:07:35;;;;;;;13.35;11.20;;;;;;;;;;6187590;28;20060;-76
2022/06/23 06:10:38;;;;;;;17.13;11.85;;;;;;;;;;6183838;28;20055;-75
2022/06/23 06:13:39;;;;;;;18.83;11.70;;;;;;;;;;6186980;28;20098;-75
2022/06/23 06:16:41;;;;;;;18.05;11.55;;;;;;;;;;6180146;28;20062;-75
2022/06/23 06:19:43;;;;;;;14.20;12.00;;;;;;;;;;6187133;28;20043;-75
2022/06/23 06:22:53;;;;;;;22.40;13.23;;;;;;;;;;6185460;28;20277;-75
2022/06/23 06:25:56;;;;;;;17.77;12.20;;;;;;;;;;6171419;28;20219;-75
2022/06/23 06:29:00;;;;;;;19.02;12.55;;;;;;;;;;6180297;28;20051;-75
2022/06/23 06:32:16;;;;;;;14.98;11.63;;;;;;;;;;6186309;28;20352;-75
2022/06/23 06:35:31;;;;;;;19.20;12.95;;;;;;;;;;6168356;28;20047;-75
2022/06/23 06:38:33;;;;;;;21.88;12.90;;;;;;;;;;6187050;28;20122;-74
2022/06/23 06:41:37;;;;;;;19.63;12.27;;;;;;;;;;6187031;28;20050;-75
2022/06/23 06:44:43;;;;;;;19.13;12.50;;;;;;;;;;6185455;28;20082;-76
2022/06/23 06:47:45;;;;;;;15.70;12.43;;;;;;;;;;6184693;28;20072;-74
2022/06/23 06:50:49;;;;;;;17.83;12.55;;;;;;;;;;6185932;28;20070;-76
2022/06/23 06:53:53;;;;;;;16.88;12.20;;;;;;;;;;6183015;28;20053;-75
2022/06/23 06:56:58;;;;;;;17.77;11.80;;;;;;;;;;6185050;28;20065;-74
2022/06/23 07:00:05;;;;;;;15.98;11.45;;;;;;;;;;6181045;28;20069;-75
2022/06/23 07:03:06;;;;;;;20.85;11.55;;;;;;;;;;6183226;28;20297;-75
2022/06/23 07:06:13;;;;;;;16.30;10.60;;;;;;;;;;6184001;28;20389;-73
2022/06/23 07:09:25;;;;;;;14.93;10.77;;;;;;;;;;6180994;28;20077;-75
2022/06/23 07:12:32;;;;;;;16.25;11.90;;;;;;;;;;6182929;28;20101;-74
2022/06/23 07:15:41;;;;;;;17.33;12.15;;;;;;;;;;6186924;28;20070;-74
2022/06/23 07:18:46;;;;;;;17.95;12.38;;;;;;;;;;6181058;28;20091;-74
2022/06/23 07:21:51;;;;;;;15.57;11.65;;;;;;;;;;6184395;28;20050;-74
2022/06/23 07:24:57;;;;;;;19.83;12.43;;;;;;;;;;6186432;28;20059;-75
2022/06/23 07:28:03;;;;;;;16.13;11.77;;;;;;;;;;6184574;28;20055;-74
2022/06/23 07:31:07;;;;;;;17.10;10.70;;;;;;;;;;6184507;28;20073;-74
2022/06/23 07:34:11;;;;;;;20.40;13.80;;;;;;;;;;6185388;28;20285;-74
2022/06/23 07:37:19;;;;;;;17.75;10.77;;;;;;;;;;6180742;28;20061;-77
2022/06/23 07:40:22;;;;;;;15.93;10.40;;;;;;;;;;6182937;28;20105;-74
2022/06/23 07:43:34;;;;;;;16.13;11.90;;;;;;;;;;6185234;28;20109;-74
2022/06/23 07:46:38;;;;;;;16.45;11.07;;;;;;;;;;6186209;28;20220;-74
2022/06/23 07:49:40;;;;;;;16.20;9.27;;;;;;;;;;6183224;28;20210;-75
2022/06/23 07:52:43;;;;;;;16.08;10.80;;;;;;;;;;6184449;28;20325;-75
2022/06/23 07:55:44;;;;;;;;;;;;;;;;;;6181723;28;20138;-76
2022/06/23 07:58:50;;;;;;;15.02;9.32;;;;;;;;;;6186681;28;19989;-81
2022/06/23 08:01:55;;;;;;;13.07;7.97;;;;;;;;;;6184417;28;20061;-79
2022/06/23 08:05:03;;;;;;;13.70;8.10;;;;;;;;;;6181712;28;20050;-78
2022/06/23 08:08:05;;;;;;;13.55;8.95;;;;;;;;;;6182487;28;20059;-78
2022/06/23 08:14:34;;;;;;;18.58;9.85;;;;;;;;;;6183437;28;20059;-86
2022/06/23 08:17:35;;;;;;;15.02;9.20;;;;;;;;;;6179553;28;20398;-86
2022/06/23 08:20:40;;;;;;;13.27;7.25;;;;;;;;;;6183233;28;20114;-84
2022/06/23 08:23:45;;;;;;;18.05;8.55;;;;;;;;;;6181413;28;20038;-86
2022/06/23 08:26:49;;;;;;;14.98;7.97;;;;;;;;;;6182444;28;20087;-86
2022/06/23 08:29:55;;;;;;;14.80;6.97;;;;;;;;;;6182214;28;20054;-89
2022/06/23 08:32:58;;;;;;;14.82;7.60;;;;;;;;;;6184962;28;20104;-90
2022/06/23 08:36:00;;;;;;;;;;;;;;;;;;6177658;28;20229;-89
2022/06/23 08:39:11;;;;;;;11.85;7.40;;;;;;;;;;6180759;28;20096;-88
2022/06/23 08:42:19;;;;;;;13.02;6.80;;;;;;;;;;6181395;28;20081;-86
2022/06/23 08:45:29;;;;;;;19.88;9.00;;;;;;;;;;6181676;28;20046;-87
2022/06/23 08:48:39;;;;;;;13.95;6.90;;;;;;;;;;6180288;28;20046;-86
2022/06/23 08:51:49;;;;;;;16.90;7.03;;;;;;;;;;6177743;28;20881;-87
2022/06/23 08:54:55;;;;;;;19.05;6.28;;;;;;;;;;6184520;28;20142;-84
2022/06/23 08:58:00;;;;;;;17.95;6.82;;;;;;;;;;6183180;28;20289;-87
2022/06/23 09:01:06;;;;;;;17.55;6.75;;;;;;;;;;6179680;28;20057;-87
2022/06/23 09:04:12;;;;;;;14.82;6.28;;;;;;;;;;6176838;28;20050;-91
2022/06/23 09:07:22;;;;;;;14.27;6.53;;;;;;;;;;6185827;28;20050;-90
2022/06/23 09:10:35;;;;;;;21.30;6.60;;;;;;;;;;6182658;28;20058;-85
2022/06/23 09:13:49;;;;;;;19.60;6.82;;;;;;;;;;6182510;28;20054;-90
2022/06/23 09:17:26;;;;;;;16.25;7.28;;;;;;;;;;6179256;28;20054;-89
2022/06/23 09:20:56;;;;;;;22.92;6.47;;;;;;;;;;6177127;28;20066;-91
2022/06/23 09:24:37;;;;;;;16.30;6.30;;;;;;;;;;6183938;28;20106;-88
2022/06/23 09:27:51;;;;;;;19.33;6.60;;;;;;;;;;6149327;28;20055;-84
2022/06/23 09:30:58;;;;;;;20.60;7.53;;;;;;;;;;6154089;28;20059;-87
2022/06/23 09:34:13;;;;;;;18.15;6.32;;;;;;;;;;6156058;28;20162;-77
2022/06/23 09:37:28;;;;;;;18.88;6.65;;;;;;;;;;6154144;28;20142;-76
2022/06/23 09:40:36;;;;;;;22.98;6.93;;;;;;;;;;6151395;28;20055;-76
2022/06/23 09:44:08;;;;;;;12.65;6.78;;;;;;;;;;6152990;28;20357;-76
2022/06/23 09:47:35;;;;;;;19.00;5.85;;;;;;;;;;6148969;28;20384;-76
2022/06/23 09:50:58;;;;;;;19.35;6.45;;;;;;;;;;6153634;28;20223;-76
2022/06/23 09:54:32;;;;;;;22.42;6.30;;;;;;;;;;6156443;28;20059;-76
2022/06/23 09:58:00;;;;;;;18.40;5.57;;;;;;;;;;6156140;28;20273;-74
2022/06/23 10:01:13;;;;;;;24.85;6.35;;;;;;;;;;6148062;28;20060;-74
2022/06/23 10:04:25;;;;;;;18.95;6.43;;;;;;;;;;6181541;28;20054;-76
2022/06/23 10:07:49;;;;;;;20.67;7.43;;;;;;;;;;6181456;28;20059;-76
2022/06/23 10:11:05;;;;;;;13.80;6.30;;;;;;;;;;6186773;28;20063;-76
2022/06/23 10:14:31;;;;;;;15.38;7.10;;;;;;;;;;6188233;28;20273;-75
2022/06/23 10:17:47;;;;;;;23.58;6.20;;;;;;;;;;6169461;28;20046;-74
2022/06/23 10:20:56;;;;;;;17.63;7.20;;;;;;;;;;6183652;28;20063;-75
2022/06/23 10:24:16;;;;;;;15.10;7.55;;;;;;;;;;6186479;28;20284;-75
2022/06/23 10:27:26;;;;;;;17.73;8.50;;;;;;;;;;6187620;28;20289;-74
2022/06/23 10:30:34;;;;;;;19.67;7.43;;;;;;;;;;6187852;28;20047;-75
2022/06/23 10:33:50;;;;;;;18.30;7.05;;;;;;;;;;6184737;28;20046;-73
2022/06/23 10:37:04;;;;;;;20.48;7.03;;;;;;;;;;6185722;28;20074;-74
2022/06/23 10:40:25;;;;;;;20.35;7.40;;;;;;;;;;6183843;28;20046;-74
2022/06/23 10:43:56;;;;;;;21.67;7.40;;;;;;;;;;6183429;28;20062;-74
2022/06/23 10:47:08;;;;;;;23.45;6.93;;;;;;;;;;6173110;28;20356;-75
2022/06/23 10:50:24;;;;;;;19.25;6.40;;;;;;;;;;6182879;28;20076;-75
2022/06/23 10:54:00;;;;;;;20.58;7.00;;;;;;;;;;6185902;28;20038;-75
2022/06/23 10:57:25;;;;;;;17.80;6.65;;;;;;;;;;6182841;28;20083;-75
2022/06/23 11:00:33;;;;;;;13.25;6.20;;;;;;;;;;6184264;28;20058;-75
2022/06/23 11:03:58;;;;;;;16.50;6.75;;;;;;;;;;6179681;28;20062;-74
2022/06/23 11:07:10;;;;;;;20.08;7.03;;;;;;;;;;6184392;28;20051;-74
2022/06/23 11:10:21;;;;;;;;;;;;;;;;;;6187272;28;20058;-74
2022/06/23 11:13:34;;;;;;;19.60;6.13;;;;;;;;;;6181919;28;19918;-74
2022/06/23 11:16:45;;;;;;;18.45;7.00;;;;;;;;;;6162273;28;20056;-74
2022/06/23 11:19:55;;;;;;;26.50;7.93;;;;;;;;;;6181592;28;20105;-75
2022/06/23 11:23:02;;;;;;;16.55;6.97;;;;;;;;;;6184019;28;20058;-77
2022/06/23 11:26:10;;;;;;;21.38;7.22;;;;;;;;;;6184961;28;20058;-76
2022/06/23 11:29:28;;;;;;;26.60;8.48;;;;;;;;;;6185669;28;20241;-77
2022/06/23 11:32:41;;;;;;;22.10;8.18;;;;;;;;;;6178032;28;20098;-76
2022/06/23 11:36:05;;;;;;;31.25;8.52;;;;;;;;;;6174246;28;20144;-77
2022/06/23 11:39:50;;;;;;;24.10;7.82;;;;;;;;;;6159346;28;20113;-76
2022/06/23 11:43:01;;;;;;;19.75;7.35;;;;;;;;;;6116599;29;20063;-77
2022/06/23 11:46:13;;;;;;;16.88;8.00;;;;;;;;;;6120553;28;20061;-81
2022/06/23 11:49:26;;;;;;;18.65;7.13;;;;;;;;;;6117466;29;20062;-76
2022/06/23 11:52:53;;;;;;;23.83;7.65;;;;;;;;;;6120728;29;20063;-77
2022/06/23 11:55:57;;;;;;;23.10;7.90;;;;;;;;;;6121946;29;20055;-76
2022/06/23 11:59:09;;;;;;;22.95;7.32;;;;;;;;;;6125922;28;20304;-77
2022/06/23 12:02:12;;;;;;;19.30;7.15;;;;;;;;;;6127049;29;20326;-76
2022/06/23 12:05:17;;;;;;;;;;;;;;;;;;6129815;28;20063;-76
2022/06/23 12:08:29;;;;;;;17.23;7.05;;;;;;;;;;6132191;29;20034;-77
2022/06/23 12:11:32;;;;;;;22.05;7.47;;;;;;;;;;6128140;29;20283;-77
2022/06/23 12:14:33;;;;;;;;;;;;;;;;;;6176357;28;20054;-78
2022/06/23 12:17:38;;;;;;;18.08;7.43;;;;;;;;;;6181192;28;19969;-77
2022/06/23 12:20:48;;;;;;;19.00;7.80;;;;;;;;;;6179516;28;20074;-74
2022/06/23 12:23:53;;;;;;;26.55;8.05;;;;;;;;;;6182745;28;20058;-74
2022/06/23 12:27:01;;;;;;;20.40;7.53;;;;;;;;;;6183549;28;20054;-76
2022/06/23 12:30:06;;;;;;;22.42;7.50;;;;;;;;;;6180799;28;20078;-79
2022/06/23 12:33:14;;;;;;;21.45;7.97;;;;;;;;;;6181747;28;20061;-84
2022/06/23 12:36:21;;;;;;;22.90;7.70;;;;;;;;;;6166880;28;20052;-82
2022/06/23 12:39:30;;;;;;;21.10;7.75;;;;;;;;;;6171399;28;20055;-83
2022/06/23 12:42:35;;;;;;;22.45;8.02;;;;;;;;;;6171765;28;20106;-81
2022/06/23 12:45:48;;;;;;;22.52;7.22;;;;;;;;;;6182424;28;20106;-83
2022/06/23 12:49:02;;;;;;;22.38;8.13;;;;;;;;;;6178016;28;20082;-84
2022/06/23 12:52:17;;;;;;;19.00;8.43;;;;;;;;;;6179194;28;20050;-85
2022/06/23 12:55:28;;;;;;;19.92;8.25;;;;;;;;;;6178944;28;20211;-88
2022/06/23 12:58:33;;;;;;;22.33;8.88;;;;;;;;;;6177317;28;20059;-85
2022/06/23 13:01:41;;;;;;;21.00;7.70;;;;;;;;;;6179001;28;20285;-77
2022/06/23 13:04:48;;;;;;;21.17;8.10;;;;;;;;;;6180020;28;20234;-80
2022/06/23 13:07:54;;;;;;;17.60;7.65;;;;;;;;;;6181224;28;20081;-79
2022/06/23 13:10:59;;;;;;;19.77;8.30;;;;;;;;;;6176698;28;20130;-79
2022/06/23 13:14:07;;;;;;;20.20;7.53;;;;;;;;;;6179938;28;20058;-78
2022/06/23 13:17:21;;;;;;;24.67;8.32;;;;;;;;;;6179548;28;20043;-76
2022/06/23 13:20:28;;;;;;;20.90;7.95;;;;;;;;;;6177326;28;20332;-79
2022/06/23 13:23:36;;;;;;;18.48;8.18;;;;;;;;;;6178570;28;20146;-79
2022/06/23 13:26:40;;;;;;;29.27;8.35;;;;;;;;;;6181919;28;20057;-80
2022/06/23 13:29:46;;;;;;;17.10;7.63;;;;;;;;;;6183702;28;20093;-80
2022/06/23 13:32:58;;;;;;;21.17;7.25;;;;;;;;;;6180019;28;20285;-79
2022/06/23 13:36:04;;;;;;;21.58;7.70;;;;;;;;;;6183143;28;20109;-79
2022/06/23 13:39:11;;;;;;;17.52;7.45;;;;;;;;;;6181644;28;20257;-78
2022/06/23 13:42:16;;;;;;;26.17;7.95;;;;;;;;;;6185754;28;20130;-80
2022/06/23 13:45:27;;;;;;;19.00;8.95;;;;;;;;;;6174173;28;20059;-74
2022/06/23 13:48:35;;;;;;;21.58;7.50;;;;;;;;;;6164355;28;20118;-74
2022/06/23 13:51:43;;;;;;;18.65;7.65;;;;;;;;;;6183850;28;20266;-74
2022/06/23 13:54:50;;;;;;;19.40;6.25;;;;;;;;;;6183009;28;20078;-74
2022/06/23 13:57:55;;;;;;;18.30;6.47;;;;;;;;;;6177345;28;20238;-73
2022/06/23 14:01:04;;;;;;;23.45;6.65;;;;;;;;;;6175614;28;20051;-74
2022/06/23 14:04:11;;;;;;;21.08;6.65;;;;;;;;;;6176917;28;20137;-74
2022/06/23 14:07:16;;;;;;;19.85;6.35;;;;;;;;;;6177276;28;20340;-73
2022/06/23 14:10:26;;;;;;;14.18;5.85;;;;;;;;;;6173057;28;20392;-74
2022/06/23 14:13:33;;;;;;;19.65;6.75;;;;;;;;;;6180483;28;20048;-73
2022/06/23 14:16:39;;;;;;;14.95;5.80;;;;;;;;;;6169685;28;20544;-72
2022/06/23 14:19:46;;;;;;;11.63;5.00;;;;;;;;;;6150647;28;20051;-73
2022/06/23 14:22:51;;;;;;;22.00;5.55;;;;;;;;;;6159594;28;20294;-72
2022/06/23 14:25:57;;;;;;;21.45;6.43;;;;;;;;;;6179839;28;20348;-73
2022/06/23 14:29:04;;;;;;;20.02;6.30;;;;;;;;;;6181535;28;20047;-73
2022/06/23 14:32:12;;;;;;;21.65;6.43;;;;;;;;;;6179450;28;20109;-73
2022/06/23 14:35:19;;;;;;;18.05;5.20;;;;;;;;;;6174770;28;20067;-73
2022/06/23 14:38:26;;;;;;;19.77;5.05;;;;;;;;;;6178071;28;20074;-73
2022/06/23 14:41:44;;;;;;;20.02;6.57;;;;;;;;;;6176473;28;20046;-73
2022/06/23 14:44:59;;;;;;;21.98;5.65;;;;;;;;;;6180590;28;20050;-72
2022/06/23 14:48:20;;;;;;;22.15;6.10;;;;;;;;;;6177884;28;20170;-73
2022/06/23 14:51:31;;;;;;;21.85;6.03;;;;;;;;;;6178237;28;20093;-73
2022/06/23 14:54:37;;;;;;;19.48;4.93;;;;;;;;;;6182985;28;20055;-73
2022/06/23 14:57:42;;;;;;;19.48;5.22;;;;;;;;;;6176509;28;20089;-73
2022/06/23 15:00:53;;;;;;;20.83;5.15;;;;;;;;;;6179717;28;20137;-73
2022/06/23 15:04:02;;;;;;;18.80;4.95;;;;;;;;;;6185059;28;20057;-73
2022/06/23 15:07:09;;;;;;;26.23;5.28;;;;;;;;;;6179442;28;20326;-73
2022/06/23 15:10:21;;;;;;;17.73;4.65;;;;;;;;;;6183073;28;20047;-73
2022/06/23 15:13:28;;;;;;;19.80;6.15;;;;;;;;;;6181122;28;21432;-73
2022/06/23 15:16:33;;;;;;;19.20;5.13;;;;;;;;;;6177164;28;20147;-73
2022/06/23 15:19:38;;;;;;;21.40;5.20;;;;;;;;;;6179224;28;20105;-73
2022/06/23 15:26:14;;;;;;;20.38;4.82;;;;;;;;;;6178819;28;20331;-72
2022/06/23 15:29:20;;;;;;;26.30;5.30;;;;;;;;;;6176439;28;20273;-72
2022/06/23 15:32:32;;;;;;;20.90;4.95;;;;;;;;;;6182042;28;20227;-74
2022/06/23 15:35:36;;;;;;;20.50;5.55;;;;;;;;;;6178247;28;20054;-73
2022/06/23 15:38:45;;;;;;;23.95;5.05;;;;;;;;;;6181991;28;20051;-74
2022/06/23 15:41:56;;;;;;;16.80;5.32;;;;;;;;;;6180962;28;20050;-73
2022/06/23 15:45:02;;;;;;;24.10;5.45;;;;;;;;;;6184500;28;20138;-73
2022/06/23 15:48:07;;;;;;;20.75;5.20;;;;;;;;;;6188576;28;20062;-73
2022/06/23 15:51:12;;;;;;;22.10;5.10;;;;;;;;;;6181168;28;20123;-73
2022/06/23 15:54:21;;;;;;;20.15;5.35;;;;;;;;;;6182822;28;20054;-73
2022/06/23 15:57:30;;;;;;;25.30;6.70;;;;;;;;;;6185815;28;20210;-73
2022/06/23 16:00:35;;;;;;;31.60;6.65;;;;;;;;;;6179129;28;20059;-73
2022/06/23 16:03:40;;;;;;;19.65;5.03;;;;;;;;;;6180252;28;20395;-73
2022/06/23 16:06:43;;;;;;;19.40;6.68;;;;;;;;;;6185388;28;20343;-72
2022/06/23 16:09:47;;;;;;;39.72;18.98;;;;;;;;;;6176931;28;20066;-73
2022/06/23 16:12:50;;;;;;;26.98;8.68;;;;;;;;;;6180174;28;20110;-75
2022/06/23 16:15:55;;;;;;;32.22;12.57;;;;;;;;;;6176465;28;20342;-75
2022/06/23 16:19:00;;;;;;;33.90;16.40;;;;;;;;;;6181430;28;20058;-74
2022/06/23 16:22:04;;;;;;;25.27;8.32;;;;;;;;;;6181004;28;20047;-73
2022/06/23 16:25:14;;;;;;;23.83;7.80;;;;;;;;;;6184953;28;20369;-72
2022/06/23 16:28:24;;;;;;;27.00;8.82;;;;;;;;;;6182320;28;20054;-74
2022/06/23 16:31:32;;;;;;;45.00;22.48;;;;;;;;;;6180120;28;20047;-75
2022/06/23 16:34:39;;;;;;;52.70;24.08;;;;;;;;;;6180249;28;20059;-75
2022/06/23 16:37:45;;;;;;;44.97;29.70;;;;;;;;;;6184254;28;20062;-73
2022/06/23 16:40:51;;;;;;;19.25;7.20;;;;;;;;;;6179660;28;20054;-74
2022/06/23 16:44:00;;;;;;;19.40;7.18;;;;;;;;;;6182665;28;20243;-73
2022/06/23 16:47:07;;;;;;;22.02;8.27;;;;;;;;;;6183546;28;20393;-73
2022/06/23 16:50:16;;;;;;;23.65;7.85;;;;;;;;;;6182684;28;20046;-73
2022/06/23 16:53:24;;;;;;;22.52;7.93;;;;;;;;;;6178443;28;20046;-77
2022/06/23 16:56:29;;;;;;;30.25;9.55;;;;;;;;;;6179238;28;20051;-75
2022/06/23 16:59:39;;;;;;;19.05;9.70;;;;;;;;;;6182176;28;20042;-76
2022/06/23 17:02:44;;;;;;;59.22;39.67;;;;;;;;;;6180244;28;20211;-76
2022/06/23 17:05:47;;;;;;;24.48;10.15;;;;;;;;;;6170229;28;20159;-76
2022/06/23 17:08:56;;;;;;;21.88;7.63;;;;;;;;;;6164220;28;20349;-77
2022/06/23 17:12:01;;;;;;;31.60;15.85;;;;;;;;;;6182577;28;20051;-76
2022/06/23 17:15:10;;;;;;;26.77;8.68;;;;;;;;;;6188838;28;20084;-76
2022/06/23 17:18:14;;;;;;;27.60;16.50;;;;;;;;;;6180311;28;20057;-77
2022/06/23 17:21:18;;;;;;;36.17;19.30;;;;;;;;;;6183945;28;20050;-81
2022/06/23 17:24:24;;;;;;;22.67;8.90;;;;;;;;;;6181984;28;20051;-77
2022/06/23 17:27:35;;;;;;;24.00;9.48;;;;;;;;;;6175360;28;20342;-77
2022/06/23 17:30:43;;;;;;;18.38;8.10;;;;;;;;;;6176207;28;20054;-77
2022/06/23 17:33:48;;;;;;;20.15;8.32;;;;;;;;;;6191702;28;20058;-77
2022/06/23 17:36:52;;;;;;;43.05;21.98;;;;;;;;;;6162487;28;20042;-76
2022/06/23 17:46:42;;;;;;;25.57;10.63;;;;;;;;;;6183033;28;20038;-75
2022/06/23 17:49:45;;;;;;;33.38;12.52;;;;;;;;;;6186586;28;20058;-75
2022/06/23 17:52:46;;;;;;;22.33;7.72;;;;;;;;;;6184221;28;20109;-74
2022/06/23 17:55:50;;;;;;;25.02;7.07;;;;;;;;;;6185820;28;20054;-75
2022/06/23 17:58:52;;;;;;;26.92;6.80;;;;;;;;;;6188428;28;20058;-77
2022/06/23 18:02:04;;;;;;;24.83;7.28;;;;;;;;;;6187141;28;20055;-77
2022/06/23 18:05:13;;;;;;;17.98;6.57;;;;;;;;;;6187629;28;20074;-76
2022/06/23 18:08:18;;;;;;;19.27;7.53;;;;;;;;;;6185192;28;20066;-74
2022/06/23 18:11:25;;;;;;;18.23;6.93;;;;;;;;;;6184023;28;20053;-75
2022/06/23 18:14:38;;;;;;;26.67;9.02;;;;;;;;;;6185375;28;20244;-75
2022/06/23 18:17:46;;;;;;;24.50;8.38;;;;;;;;;;6181409;28;20057;-74
2022/06/23 18:20:52;;;;;;;28.50;8.55;;;;;;;;;;6182412;28;20262;-73
2022/06/23 18:23:58;;;;;;;18.88;7.97;;;;;;;;;;6185596;28;20109;-75
2022/06/23 18:27:08;;;;;;;23.30;10.43;;;;;;;;;;6185977;28;20357;-77
2022/06/23 18:30:15;;;;;;;29.23;9.15;;;;;;;;;;6187659;28;20054;-74
2022/06/23 18:33:20;;;;;;;21.90;8.00;;;;;;;;;;6186129;28;20042;-77
2022/06/23 18:36:28;;;;;;;17.42;7.78;;;;;;;;;;6184293;28;20050;-77
2022/06/23 18:39:40;;;;;;;23.02;7.68;;;;;;;;;;6186361;28;20043;-74
2022/06/23 18:42:46;;;;;;;17.65;6.22;;;;;;;;;;6167840;28;20050;-75
2022/06/23 18:45:50;;;;;;;17.20;4.20;;;;;;;;;;6161967;28;20094;-74